sensor_id;sensor_type;location;lat;lon;timestamp;P1;durP1;ratioP1;P2;durP2;ratioP2
73084;SDS011;62974;49.460;10.892;2023-05-07T00:01:48;3.85;;;1.80;;
73084;SDS011;62974;49.460;10.892;2023-05-07T00:04:17;3.00;;;2.08;;
73084;SDS011;62974;49.460;10.892;2023-05-07T00:06:45;4.85;;;2.47;;
73084;SDS011;62974;49.460;10.892;2023-05-07T00:09:12;2.65;;;1.80;;
73084;SDS011;62974;49.460;10.892;2023-05-07T00:11:40;3.35;;;2.00;;
73084;SDS011;62974;49.460;10.892;2023-05-07T00:14:07;3.97;;;1.90;;
73084;SDS011;62974;49.460;10.892;2023-05-07T00:16:35;3.03;;;1.83;;
73084;SDS011;62974;49.460;10.892;2023-05-07T00:19:03;3.63;;;2.05;;
73084;SDS011;62974;49.460;10.892;2023-05-07T00:21:32;3.85;;;2.08;;
73084;SDS011;62974;49.460;10.892;2023-05-07T00:23:59;3.95;;;2.20;;
73084;SDS011;62974;49.460;10.892;2023-05-07T00:26:27;3.63;;;2.22;;
73084;SDS011;62974;49.460;10.892;2023-05-07T00:28:54;4.13;;;2.17;;
73084;SDS011;62974;49.460;10.892;2023-05-07T00:31:22;3.65;;;2.22;;
73084;SDS011;62974;49.460;10.892;2023-05-07T00:33:49;4.82;;;2.25;;
73084;SDS011;62974;49.460;10.892;2023-05-07T00:36:17;4.30;;;2.00;;
73084;SDS011;62974;49.460;10.892;2023-05-07T00:38:46;5.40;;;2.28;;
73084;SDS011;62974;49.460;10.892;2023-05-07T00:41:13;2.70;;;1.90;;
73084;SDS011;62974;49.460;10.892;2023-05-07T00:43:42;3.08;;;1.80;;
73084;SDS011;62974;49.460;10.892;2023-05-07T00:46:10;3.60;;;2.22;;
73084;SDS011;62974;49.460;10.892;2023-05-07T00:48:37;3.38;;;2.05;;
73084;SDS011;62974;49.460;10.892;2023-05-07T00:51:05;3.88;;;2.35;;
73084;SDS011;62974;49.460;10.892;2023-05-07T00:53:33;3.67;;;2.22;;
73084;SDS011;62974;49.460;10.892;2023-05-07T00:58:31;3.60;;;1.92;;
73084;SDS011;62974;49.460;10.892;2023-05-07T01:00:59;3.75;;;2.30;;
73084;SDS011;62974;49.460;10.892;2023-05-07T01:03:27;4.97;;;2.15;;
73084;SDS011;62974;49.460;10.892;2023-05-07T01:05:54;3.53;;;2.20;;
73084;SDS011;62974;49.460;10.892;2023-05-07T01:08:25;4.93;;;2.10;;
73084;SDS011;62974;49.460;10.892;2023-05-07T01:10:55;3.05;;;1.95;;
73084;SDS011;62974;49.460;10.892;2023-05-07T01:13:25;4.32;;;2.63;;
73084;SDS011;62974;49.460;10.892;2023-05-07T01:15:54;3.25;;;2.00;;
73084;SDS011;62974;49.460;10.892;2023-05-07T01:18:21;4.70;;;1.98;;
73084;SDS011;62974;49.460;10.892;2023-05-07T01:20:49;2.65;;;1.92;;
73084;SDS011;62974;49.460;10.892;2023-05-07T01:23:18;4.45;;;2.15;;
73084;SDS011;62974;49.460;10.892;2023-05-07T01:25:50;3.40;;;2.17;;
73084;SDS011;62974;49.460;10.892;2023-05-07T01:28:18;6.03;;;2.15;;
73084;SDS011;62974;49.460;10.892;2023-05-07T01:30:46;4.18;;;1.77;;
73084;SDS011;62974;49.460;10.892;2023-05-07T01:33:19;4.93;;;1.98;;
73084;SDS011;62974;49.460;10.892;2023-05-07T01:35:50;2.70;;;1.70;;
73084;SDS011;62974;49.460;10.892;2023-05-07T01:38:21;3.60;;;1.92;;
73084;SDS011;62974;49.460;10.892;2023-05-07T01:40:50;2.92;;;1.70;;
73084;SDS011;62974;49.460;10.892;2023-05-07T01:43:18;2.85;;;1.80;;
73084;SDS011;62974;49.460;10.892;2023-05-07T01:45:46;2.53;;;1.92;;
73084;SDS011;62974;49.460;10.892;2023-05-07T01:48:15;4.22;;;2.08;;
73084;SDS011;62974;49.460;10.892;2023-05-07T01:50:43;4.35;;;2.08;;
73084;SDS011;62974;49.460;10.892;2023-05-07T01:53:11;2.80;;;1.67;;
73084;SDS011;62974;49.460;10.892;2023-05-07T01:55:40;2.67;;;1.73;;
73084;SDS011;62974;49.460;10.892;2023-05-07T01:58:07;2.83;;;1.55;;
73084;SDS011;62974;49.460;10.892;2023-05-07T02:00:35;3.47;;;2.03;;
73084;SDS011;62974;49.460;10.892;2023-05-07T02:03:03;3.40;;;1.98;;
73084;SDS011;62974;49.460;10.892;2023-05-07T02:05:31;4.28;;;1.88;;
73084;SDS011;62974;49.460;10.892;2023-05-07T02:07:58;2.92;;;1.80;;
73084;SDS011;62974;49.460;10.892;2023-05-07T02:10:26;3.38;;;1.92;;
73084;SDS011;62974;49.460;10.892;2023-05-07T02:12:54;3.30;;;2.00;;
73084;SDS011;62974;49.460;10.892;2023-05-07T02:15:22;2.95;;;1.67;;
73084;SDS011;62974;49.460;10.892;2023-05-07T02:17:59;3.08;;;2.20;;
73084;SDS011;62974;49.460;10.892;2023-05-07T02:20:28;2.95;;;1.70;;
73084;SDS011;62974;49.460;10.892;2023-05-07T02:22:55;4.13;;;1.88;;
73084;SDS011;62974;49.460;10.892;2023-05-07T02:25:23;2.83;;;1.90;;
73084;SDS011;62974;49.460;10.892;2023-05-07T02:27:51;3.15;;;1.95;;
73084;SDS011;62974;49.460;10.892;2023-05-07T02:30:19;2.85;;;1.73;;
73084;SDS011;62974;49.460;10.892;2023-05-07T02:32:48;2.20;;;1.77;;
73084;SDS011;62974;49.460;10.892;2023-05-07T02:35:16;4.30;;;1.80;;
73084;SDS011;62974;49.460;10.892;2023-05-07T02:37:43;4.15;;;1.90;;
73084;SDS011;62974;49.460;10.892;2023-05-07T02:40:11;3.17;;;2.10;;
73084;SDS011;62974;49.460;10.892;2023-05-07T02:42:39;3.03;;;1.95;;
73084;SDS011;62974;49.460;10.892;2023-05-07T02:45:07;2.65;;;1.60;;
73084;SDS011;62974;49.460;10.892;2023-05-07T02:47:37;4.43;;;2.13;;
73084;SDS011;62974;49.460;10.892;2023-05-07T02:50:05;2.72;;;1.95;;
73084;SDS011;62974;49.460;10.892;2023-05-07T02:52:33;3.97;;;2.38;;
73084;SDS011;62974;49.460;10.892;2023-05-07T02:55:01;3.33;;;2.25;;
73084;SDS011;62974;49.460;10.892;2023-05-07T02:57:28;2.63;;;1.88;;
73084;SDS011;62974;49.460;10.892;2023-05-07T02:59:57;3.72;;;2.30;;
73084;SDS011;62974;49.460;10.892;2023-05-07T03:02:25;3.00;;;2.00;;
73084;SDS011;62974;49.460;10.892;2023-05-07T03:04:54;3.15;;;1.83;;
73084;SDS011;62974;49.460;10.892;2023-05-07T03:07:22;3.78;;;1.88;;
73084;SDS011;62974;49.460;10.892;2023-05-07T03:09:49;4.28;;;1.90;;
73084;SDS011;62974;49.460;10.892;2023-05-07T03:12:17;3.40;;;2.10;;
73084;SDS011;62974;49.460;10.892;2023-05-07T03:14:44;2.47;;;1.83;;
73084;SDS011;62974;49.460;10.892;2023-05-07T03:17:11;2.63;;;1.52;;
73084;SDS011;62974;49.460;10.892;2023-05-07T03:19:39;3.58;;;2.17;;
73084;SDS011;62974;49.460;10.892;2023-05-07T03:22:08;2.78;;;1.80;;
73084;SDS011;62974;49.460;10.892;2023-05-07T03:24:35;2.85;;;1.70;;
73084;SDS011;62974;49.460;10.892;2023-05-07T03:27:03;3.75;;;1.88;;
73084;SDS011;62974;49.460;10.892;2023-05-07T03:29:30;6.20;;;1.98;;
73084;SDS011;62974;49.460;10.892;2023-05-07T03:31:58;2.50;;;1.73;;
73084;SDS011;62974;49.460;10.892;2023-05-07T03:34:25;3.17;;;1.95;;
73084;SDS011;62974;49.460;10.892;2023-05-07T03:36:53;4.57;;;1.80;;
73084;SDS011;62974;49.460;10.892;2023-05-07T03:39:22;3.13;;;2.03;;
73084;SDS011;62974;49.460;10.892;2023-05-07T03:41:49;3.53;;;1.50;;
73084;SDS011;62974;49.460;10.892;2023-05-07T03:44:17;2.60;;;1.88;;
73084;SDS011;62974;49.460;10.892;2023-05-07T03:46:44;2.10;;;1.70;;
73084;SDS011;62974;49.460;10.892;2023-05-07T03:49:12;3.85;;;1.80;;
73084;SDS011;62974;49.460;10.892;2023-05-07T03:51:39;2.92;;;1.80;;
73084;SDS011;62974;49.460;10.892;2023-05-07T03:54:07;2.55;;;1.77;;
73084;SDS011;62974;49.460;10.892;2023-05-07T03:56:36;3.50;;;2.08;;
73084;SDS011;62974;49.460;10.892;2023-05-07T03:59:03;3.20;;;2.10;;
73084;SDS011;62974;49.460;10.892;2023-05-07T04:01:31;2.80;;;1.80;;
73084;SDS011;62974;49.460;10.892;2023-05-07T04:03:58;3.70;;;2.00;;
73084;SDS011;62974;49.460;10.892;2023-05-07T04:06:26;2.72;;;1.95;;
73084;SDS011;62974;49.460;10.892;2023-05-07T04:08:54;3.90;;;2.10;;
73084;SDS011;62974;49.460;10.892;2023-05-07T04:11:21;3.58;;;1.88;;
73084;SDS011;62974;49.460;10.892;2023-05-07T04:13:50;4.03;;;2.00;;
73084;SDS011;62974;49.460;10.892;2023-05-07T04:16:17;3.05;;;1.80;;
73084;SDS011;62974;49.460;10.892;2023-05-07T04:18:45;4.65;;;2.17;;
73084;SDS011;62974;49.460;10.892;2023-05-07T04:21:15;4.93;;;2.30;;
73084;SDS011;62974;49.460;10.892;2023-05-07T04:23:43;3.10;;;1.98;;
73084;SDS011;62974;49.460;10.892;2023-05-07T04:26:13;4.15;;;2.65;;
73084;SDS011;62974;49.460;10.892;2023-05-07T04:28:42;3.63;;;2.03;;
73084;SDS011;62974;49.460;10.892;2023-05-07T04:31:11;3.20;;;1.95;;
73084;SDS011;62974;49.460;10.892;2023-05-07T04:33:39;3.22;;;2.20;;
73084;SDS011;62974;49.460;10.892;2023-05-07T04:36:06;3.15;;;2.00;;
73084;SDS011;62974;49.460;10.892;2023-05-07T04:38:37;5.10;;;2.40;;
73084;SDS011;62974;49.460;10.892;2023-05-07T04:41:05;3.25;;;2.33;;
73084;SDS011;62974;49.460;10.892;2023-05-07T04:43:33;3.95;;;2.35;;
73084;SDS011;62974;49.460;10.892;2023-05-07T04:46:01;6.18;;;2.28;;
73084;SDS011;62974;49.460;10.892;2023-05-07T04:48:30;3.97;;;2.50;;
73084;SDS011;62974;49.460;10.892;2023-05-07T04:50:57;5.18;;;2.47;;
73084;SDS011;62974;49.460;10.892;2023-05-07T04:53:25;3.20;;;2.10;;
73084;SDS011;62974;49.460;10.892;2023-05-07T04:55:54;3.45;;;2.00;;
73084;SDS011;62974;49.460;10.892;2023-05-07T04:58:22;2.70;;;1.92;;
73084;SDS011;62974;49.460;10.892;2023-05-07T05:00:50;5.10;;;2.33;;
73084;SDS011;62974;49.460;10.892;2023-05-07T05:03:18;4.28;;;2.40;;
73084;SDS011;62974;49.460;10.892;2023-05-07T05:05:47;4.88;;;2.80;;
73084;SDS011;62974;49.460;10.892;2023-05-07T05:08:16;6.43;;;2.65;;
73084;SDS011;62974;49.460;10.892;2023-05-07T05:10:43;5.00;;;3.10;;
73084;SDS011;62974;49.460;10.892;2023-05-07T05:13:11;4.68;;;3.25;;
73084;SDS011;62974;49.460;10.892;2023-05-07T05:18:07;7.03;;;2.92;;
73084;SDS011;62974;49.460;10.892;2023-05-07T05:20:34;5.93;;;3.13;;
73084;SDS011;62974;49.460;10.892;2023-05-07T05:23:03;4.68;;;3.10;;
73084;SDS011;62974;49.460;10.892;2023-05-07T05:25:31;6.63;;;3.28;;
73084;SDS011;62974;49.460;10.892;2023-05-07T05:27:59;4.95;;;2.90;;
73084;SDS011;62974;49.460;10.892;2023-05-07T05:30:27;5.97;;;3.15;;
73084;SDS011;62974;49.460;10.892;2023-05-07T05:32:54;5.10;;;3.58;;
73084;SDS011;62974;49.460;10.892;2023-05-07T05:35:22;5.25;;;3.50;;
73084;SDS011;62974;49.460;10.892;2023-05-07T05:37:50;6.78;;;3.65;;
73084;SDS011;62974;49.460;10.892;2023-05-07T05:40:19;8.00;;;4.43;;
73084;SDS011;62974;49.460;10.892;2023-05-07T05:42:46;7.32;;;3.63;;
73084;SDS011;62974;49.460;10.892;2023-05-07T05:45:14;5.20;;;3.72;;
73084;SDS011;62974;49.460;10.892;2023-05-07T05:47:41;5.50;;;3.40;;
73084;SDS011;62974;49.460;10.892;2023-05-07T05:50:09;8.10;;;4.28;;
73084;SDS011;62974;49.460;10.892;2023-05-07T05:52:37;8.23;;;4.43;;
73084;SDS011;62974;49.460;10.892;2023-05-07T05:55:05;7.05;;;3.80;;
73084;SDS011;62974;49.460;10.892;2023-05-07T05:57:34;7.45;;;4.57;;
73084;SDS011;62974;49.460;10.892;2023-05-07T06:00:02;6.63;;;4.38;;
73084;SDS011;62974;49.460;10.892;2023-05-07T06:02:31;7.60;;;3.50;;
73084;SDS011;62974;49.460;10.892;2023-05-07T06:04:59;8.13;;;4.05;;
73084;SDS011;62974;49.460;10.892;2023-05-07T06:07:27;5.80;;;3.60;;
73084;SDS011;62974;49.460;10.892;2023-05-07T06:09:54;6.75;;;3.70;;
73084;SDS011;62974;49.460;10.892;2023-05-07T06:12:22;5.43;;;3.60;;
73084;SDS011;62974;49.460;10.892;2023-05-07T06:14:51;7.72;;;4.20;;
73084;SDS011;62974;49.460;10.892;2023-05-07T06:17:18;9.02;;;4.30;;
73084;SDS011;62974;49.460;10.892;2023-05-07T06:19:47;10.63;;;4.47;;
73084;SDS011;62974;49.460;10.892;2023-05-07T06:22:14;7.63;;;5.03;;
73084;SDS011;62974;49.460;10.892;2023-05-07T06:24:42;8.45;;;4.20;;
73084;SDS011;62974;49.460;10.892;2023-05-07T06:27:09;9.27;;;4.45;;
73084;SDS011;62974;49.460;10.892;2023-05-07T06:29:37;7.68;;;3.97;;
73084;SDS011;62974;49.460;10.892;2023-05-07T06:32:09;7.43;;;4.15;;
73084;SDS011;62974;49.460;10.892;2023-05-07T06:34:38;7.85;;;3.72;;
73084;SDS011;62974;49.460;10.892;2023-05-07T06:37:07;6.50;;;4.13;;
73084;SDS011;62974;49.460;10.892;2023-05-07T06:39:34;7.88;;;3.97;;
73084;SDS011;62974;49.460;10.892;2023-05-07T06:42:02;7.47;;;4.47;;
73084;SDS011;62974;49.460;10.892;2023-05-07T06:44:30;8.75;;;5.25;;
73084;SDS011;62974;49.460;10.892;2023-05-07T06:46:58;6.85;;;4.10;;
73084;SDS011;62974;49.460;10.892;2023-05-07T06:49:27;8.77;;;4.65;;
73084;SDS011;62974;49.460;10.892;2023-05-07T06:51:54;6.20;;;3.75;;
73084;SDS011;62974;49.460;10.892;2023-05-07T06:54:22;7.50;;;4.35;;
73084;SDS011;62974;49.460;10.892;2023-05-07T06:56:50;6.78;;;4.13;;
73084;SDS011;62974;49.460;10.892;2023-05-07T06:59:17;6.97;;;3.65;;
73084;SDS011;62974;49.460;10.892;2023-05-07T07:01:45;8.30;;;4.35;;
73084;SDS011;62974;49.460;10.892;2023-05-07T07:04:12;7.50;;;4.18;;
73084;SDS011;62974;49.460;10.892;2023-05-07T07:06:42;8.15;;;4.97;;
73084;SDS011;62974;49.460;10.892;2023-05-07T07:09:09;6.40;;;3.92;;
73084;SDS011;62974;49.460;10.892;2023-05-07T07:11:37;7.45;;;4.00;;
73084;SDS011;62974;49.460;10.892;2023-05-07T07:14:04;6.93;;;4.45;;
73084;SDS011;62974;49.460;10.892;2023-05-07T07:16:32;9.93;;;4.18;;
73084;SDS011;62974;49.460;10.892;2023-05-07T07:19:00;7.00;;;4.53;;
73084;SDS011;62974;49.460;10.892;2023-05-07T07:21:27;7.28;;;4.30;;
73084;SDS011;62974;49.460;10.892;2023-05-07T07:26:25;8.82;;;4.05;;
73084;SDS011;62974;49.460;10.892;2023-05-07T07:28:52;10.40;;;4.82;;
73084;SDS011;62974;49.460;10.892;2023-05-07T07:31:20;7.43;;;4.38;;
73084;SDS011;62974;49.460;10.892;2023-05-07T07:33:47;8.15;;;3.97;;
73084;SDS011;62974;49.460;10.892;2023-05-07T07:36:18;7.35;;;4.22;;
73084;SDS011;62974;49.460;10.892;2023-05-07T07:38:48;9.05;;;4.10;;
73084;SDS011;62974;49.460;10.892;2023-05-07T07:41:17;5.18;;;3.03;;
73084;SDS011;62974;49.460;10.892;2023-05-07T07:43:45;5.80;;;3.75;;
73084;SDS011;62974;49.460;10.892;2023-05-07T07:46:15;7.95;;;4.00;;
73084;SDS011;62974;49.460;10.892;2023-05-07T07:48:42;4.80;;;2.90;;
73084;SDS011;62974;49.460;10.892;2023-05-07T07:51:10;7.60;;;4.20;;
73084;SDS011;62974;49.460;10.892;2023-05-07T07:53:38;9.27;;;4.55;;
73084;SDS011;62974;49.460;10.892;2023-05-07T07:56:06;6.63;;;3.83;;
73084;SDS011;62974;49.460;10.892;2023-05-07T07:58:35;7.15;;;3.90;;
73084;SDS011;62974;49.460;10.892;2023-05-07T08:01:03;7.57;;;3.83;;
73084;SDS011;62974;49.460;10.892;2023-05-07T08:03:31;7.78;;;4.45;;
73084;SDS011;62974;49.460;10.892;2023-05-07T08:06:00;7.32;;;4.53;;
73084;SDS011;62974;49.460;10.892;2023-05-07T08:08:27;7.80;;;4.07;;
73084;SDS011;62974;49.460;10.892;2023-05-07T08:10:55;7.63;;;4.15;;
73084;SDS011;62974;49.460;10.892;2023-05-07T08:13:22;6.40;;;3.92;;
73084;SDS011;62974;49.460;10.892;2023-05-07T08:15:52;5.95;;;3.53;;
73084;SDS011;62974;49.460;10.892;2023-05-07T08:18:19;7.78;;;3.70;;
73084;SDS011;62974;49.460;10.892;2023-05-07T08:20:47;8.20;;;3.97;;
73084;SDS011;62974;49.460;10.892;2023-05-07T08:23:14;7.43;;;4.00;;
73084;SDS011;62974;49.460;10.892;2023-05-07T08:25:42;7.95;;;4.25;;
73084;SDS011;62974;49.460;10.892;2023-05-07T08:28:10;7.82;;;3.97;;
73084;SDS011;62974;49.460;10.892;2023-05-07T08:30:38;5.30;;;3.70;;
73084;SDS011;62974;49.460;10.892;2023-05-07T08:33:08;6.72;;;3.80;;
73084;SDS011;62974;49.460;10.892;2023-05-07T08:35:35;6.05;;;3.97;;
73084;SDS011;62974;49.460;10.892;2023-05-07T08:38:03;8.27;;;3.85;;
73084;SDS011;62974;49.460;10.892;2023-05-07T08:40:32;8.68;;;4.20;;
73084;SDS011;62974;49.460;10.892;2023-05-07T08:43:05;6.45;;;4.43;;
73084;SDS011;62974;49.460;10.892;2023-05-07T08:45:34;5.47;;;4.00;;
73084;SDS011;62974;49.460;10.892;2023-05-07T08:48:02;6.57;;;4.00;;
73084;SDS011;62974;49.460;10.892;2023-05-07T08:50:36;7.05;;;4.28;;
73084;SDS011;62974;49.460;10.892;2023-05-07T08:53:03;6.03;;;3.67;;
73084;SDS011;62974;49.460;10.892;2023-05-07T08:55:31;5.38;;;3.58;;
73084;SDS011;62974;49.460;10.892;2023-05-07T09:00:27;6.55;;;3.50;;
73084;SDS011;62974;49.460;10.892;2023-05-07T09:02:55;6.13;;;3.53;;
73084;SDS011;62974;49.460;10.892;2023-05-07T09:05:23;6.38;;;3.60;;
73084;SDS011;62974;49.460;10.892;2023-05-07T09:07:52;5.97;;;3.42;;
73084;SDS011;62974;49.460;10.892;2023-05-07T09:10:23;7.97;;;4.00;;
73084;SDS011;62974;49.460;10.892;2023-05-07T09:12:51;7.65;;;3.33;;
73084;SDS011;62974;49.460;10.892;2023-05-07T09:15:19;5.75;;;3.67;;
73084;SDS011;62974;49.460;10.892;2023-05-07T09:17:46;7.25;;;3.70;;
73084;SDS011;62974;49.460;10.892;2023-05-07T09:20:14;7.70;;;3.95;;
73084;SDS011;62974;49.460;10.892;2023-05-07T09:22:43;5.20;;;3.38;;
73084;SDS011;62974;49.460;10.892;2023-05-07T09:25:13;4.88;;;3.33;;
73084;SDS011;62974;49.460;10.892;2023-05-07T09:27:41;6.88;;;3.95;;
73084;SDS011;62974;49.460;10.892;2023-05-07T09:30:09;5.30;;;3.25;;
73084;SDS011;62974;49.460;10.892;2023-05-07T09:32:38;5.53;;;3.58;;
73084;SDS011;62974;49.460;10.892;2023-05-07T09:35:06;6.63;;;3.90;;
73084;SDS011;62974;49.460;10.892;2023-05-07T09:37:42;5.30;;;3.40;;
73084;SDS011;62974;49.460;10.892;2023-05-07T09:40:20;6.03;;;3.80;;
73084;SDS011;62974;49.460;10.892;2023-05-07T09:42:49;4.55;;;3.53;;
73084;SDS011;62974;49.460;10.892;2023-05-07T09:47:49;6.95;;;3.55;;
73084;SDS011;62974;49.460;10.892;2023-05-07T09:50:20;5.03;;;3.20;;
73084;SDS011;62974;49.460;10.892;2023-05-07T09:52:52;6.85;;;3.92;;
73084;SDS011;62974;49.460;10.892;2023-05-07T09:55:22;5.90;;;3.70;;
73084;SDS011;62974;49.460;10.892;2023-05-07T09:57:51;5.47;;;2.92;;
73084;SDS011;62974;49.460;10.892;2023-05-07T10:00:20;6.53;;;2.95;;
73084;SDS011;62974;49.460;10.892;2023-05-07T10:02:48;4.60;;;2.97;;
73084;SDS011;62974;49.460;10.892;2023-05-07T10:05:18;5.15;;;3.20;;
73084;SDS011;62974;49.460;10.892;2023-05-07T10:07:46;5.82;;;3.03;;
73084;SDS011;62974;49.460;10.892;2023-05-07T10:10:14;5.15;;;3.20;;
73084;SDS011;62974;49.460;10.892;2023-05-07T10:12:43;6.30;;;3.75;;
73084;SDS011;62974;49.460;10.892;2023-05-07T10:15:13;5.57;;;3.55;;
73084;SDS011;62974;49.460;10.892;2023-05-07T10:20:08;4.28;;;2.33;;
73084;SDS011;62974;49.460;10.892;2023-05-07T10:22:37;5.72;;;3.08;;
73084;SDS011;62974;49.460;10.892;2023-05-07T10:25:09;4.05;;;2.47;;
73084;SDS011;62974;49.460;10.892;2023-05-07T10:27:44;4.07;;;2.70;;
73084;SDS011;62974;49.460;10.892;2023-05-07T10:30:15;5.05;;;2.30;;
73084;SDS011;62974;49.460;10.892;2023-05-07T10:32:53;4.20;;;2.25;;
73084;SDS011;62974;49.460;10.892;2023-05-07T10:35:24;4.38;;;2.10;;
73084;SDS011;62974;49.460;10.892;2023-05-07T10:37:56;3.55;;;2.30;;
73084;SDS011;62974;49.460;10.892;2023-05-07T10:40:24;4.80;;;2.10;;
73084;SDS011;62974;49.460;10.892;2023-05-07T10:42:57;4.30;;;2.05;;
73084;SDS011;62974;49.460;10.892;2023-05-07T10:45:26;2.95;;;2.13;;
73084;SDS011;62974;49.460;10.892;2023-05-07T10:50:52;3.10;;;1.90;;
73084;SDS011;62974;49.460;10.892;2023-05-07T10:53:46;3.00;;;2.10;;
73084;SDS011;62974;49.460;10.892;2023-05-07T11:02:00;2.33;;;1.60;;
73084;SDS011;62974;49.460;10.892;2023-05-07T11:04:30;4.85;;;2.17;;
73084;SDS011;62974;49.460;10.892;2023-05-07T11:09:54;3.78;;;2.55;;
73084;SDS011;62974;49.460;10.892;2023-05-07T11:15:38;4.47;;;2.17;;
73084;SDS011;62974;49.460;10.892;2023-05-07T11:18:08;5.93;;;2.60;;
73084;SDS011;62974;49.460;10.892;2023-05-07T11:26:43;3.58;;;2.28;;
73084;SDS011;62974;49.460;10.892;2023-05-07T11:29:15;3.67;;;2.50;;
73084;SDS011;62974;49.460;10.892;2023-05-07T11:31:52;3.05;;;2.17;;
73084;SDS011;62974;49.460;10.892;2023-05-07T11:34:21;4.45;;;2.15;;
73084;SDS011;62974;49.460;10.892;2023-05-07T11:36:50;4.13;;;2.53;;
73084;SDS011;62974;49.460;10.892;2023-05-07T11:39:24;3.50;;;2.30;;
73084;SDS011;62974;49.460;10.892;2023-05-07T11:41:52;2.85;;;1.88;;
73084;SDS011;62974;49.460;10.892;2023-05-07T11:44:20;4.95;;;2.45;;
73084;SDS011;62974;49.460;10.892;2023-05-07T11:46:47;2.78;;;1.95;;
73084;SDS011;62974;49.460;10.892;2023-05-07T11:49:17;4.40;;;2.05;;
73084;SDS011;62974;49.460;10.892;2023-05-07T11:51:45;3.22;;;2.00;;
73084;SDS011;62974;49.460;10.892;2023-05-07T11:54:15;3.33;;;2.10;;
73084;SDS011;62974;49.460;10.892;2023-05-07T11:56:43;3.05;;;1.98;;
73084;SDS011;62974;49.460;10.892;2023-05-07T11:59:12;3.92;;;2.10;;
73084;SDS011;62974;49.460;10.892;2023-05-07T12:01:45;5.07;;;2.00;;
73084;SDS011;62974;49.460;10.892;2023-05-07T12:04:13;5.38;;;2.50;;
73084;SDS011;62974;49.460;10.892;2023-05-07T12:06:42;4.18;;;2.33;;
73084;SDS011;62974;49.460;10.892;2023-05-07T12:09:10;2.70;;;1.85;;
73084;SDS011;62974;49.460;10.892;2023-05-07T12:11:38;3.30;;;2.00;;
73084;SDS011;62974;49.460;10.892;2023-05-07T12:14:06;5.53;;;2.10;;
73084;SDS011;62974;49.460;10.892;2023-05-07T12:16:37;3.53;;;2.03;;
73084;SDS011;62974;49.460;10.892;2023-05-07T12:19:06;2.28;;;1.77;;
73084;SDS011;62974;49.460;10.892;2023-05-07T12:21:42;4.45;;;2.00;;
73084;SDS011;62974;49.460;10.892;2023-05-07T12:24:10;3.03;;;1.90;;
73084;SDS011;62974;49.460;10.892;2023-05-07T12:26:37;4.88;;;2.22;;
73084;SDS011;62974;49.460;10.892;2023-05-07T12:29:06;3.05;;;2.03;;
73084;SDS011;62974;49.460;10.892;2023-05-07T12:31:34;3.53;;;2.03;;
73084;SDS011;62974;49.460;10.892;2023-05-07T12:34:02;3.35;;;2.10;;
73084;SDS011;62974;49.460;10.892;2023-05-07T12:36:36;2.88;;;2.00;;
73084;SDS011;62974;49.460;10.892;2023-05-07T12:39:05;2.65;;;1.73;;
73084;SDS011;62974;49.460;10.892;2023-05-07T12:41:51;5.90;;;2.30;;
73084;SDS011;62974;49.460;10.892;2023-05-07T12:44:21;2.85;;;1.95;;
73084;SDS011;62974;49.460;10.892;2023-05-07T12:46:50;3.42;;;2.20;;
73084;SDS011;62974;49.460;10.892;2023-05-07T12:49:18;3.55;;;2.30;;
73084;SDS011;62974;49.460;10.892;2023-05-07T12:51:49;3.60;;;2.28;;
73084;SDS011;62974;49.460;10.892;2023-05-07T12:54:28;2.95;;;1.85;;
73084;SDS011;62974;49.460;10.892;2023-05-07T12:57:00;2.53;;;1.80;;
73084;SDS011;62974;49.460;10.892;2023-05-07T12:59:32;3.33;;;2.03;;
73084;SDS011;62974;49.460;10.892;2023-05-07T13:02:00;2.95;;;2.05;;
73084;SDS011;62974;49.460;10.892;2023-05-07T13:06:56;3.05;;;1.98;;
73084;SDS011;62974;49.460;10.892;2023-05-07T13:09:23;3.55;;;2.08;;
73084;SDS011;62974;49.460;10.892;2023-05-07T13:11:52;3.25;;;2.25;;
73084;SDS011;62974;49.460;10.892;2023-05-07T13:14:20;3.92;;;2.20;;
73084;SDS011;62974;49.460;10.892;2023-05-07T13:16:47;3.90;;;2.40;;
73084;SDS011;62974;49.460;10.892;2023-05-07T13:19:15;3.30;;;2.13;;
73084;SDS011;62974;49.460;10.892;2023-05-07T13:21:43;4.65;;;2.10;;
73084;SDS011;62974;49.460;10.892;2023-05-07T13:24:11;3.88;;;2.20;;
73084;SDS011;62974;49.460;10.892;2023-05-07T13:26:38;3.83;;;2.53;;
73084;SDS011;62974;49.460;10.892;2023-05-07T13:29:07;5.30;;;2.60;;
73084;SDS011;62974;49.460;10.892;2023-05-07T13:31:35;4.43;;;2.47;;
73084;SDS011;62974;49.460;10.892;2023-05-07T13:34:02;3.55;;;2.33;;
73084;SDS011;62974;49.460;10.892;2023-05-07T13:36:30;3.50;;;2.30;;
73084;SDS011;62974;49.460;10.892;2023-05-07T13:38:59;3.13;;;2.22;;
73084;SDS011;62974;49.460;10.892;2023-05-07T13:41:26;3.47;;;2.28;;
73084;SDS011;62974;49.460;10.892;2023-05-07T13:43:54;4.05;;;2.60;;
73084;SDS011;62974;49.460;10.892;2023-05-07T13:46:24;3.78;;;2.10;;
73084;SDS011;62974;49.460;10.892;2023-05-07T13:48:51;2.50;;;1.70;;
73084;SDS011;62974;49.460;10.892;2023-05-07T13:51:19;3.47;;;2.20;;
73084;SDS011;62974;49.460;10.892;2023-05-07T13:53:46;5.47;;;1.92;;
73084;SDS011;62974;49.460;10.892;2023-05-07T13:56:14;3.22;;;2.05;;
73084;SDS011;62974;49.460;10.892;2023-05-07T13:58:42;3.80;;;1.73;;
73084;SDS011;62974;49.460;10.892;2023-05-07T14:01:26;3.00;;;2.03;;
73084;SDS011;62974;49.460;10.892;2023-05-07T14:03:55;3.70;;;2.25;;
73084;SDS011;62974;49.460;10.892;2023-05-07T14:06:23;3.30;;;2.28;;
73084;SDS011;62974;49.460;10.892;2023-05-07T14:08:51;3.95;;;1.98;;
73084;SDS011;62974;49.460;10.892;2023-05-07T14:11:18;3.10;;;1.75;;
73084;SDS011;62974;49.460;10.892;2023-05-07T14:13:46;3.05;;;2.10;;
73084;SDS011;62974;49.460;10.892;2023-05-07T14:16:14;3.03;;;1.92;;
73084;SDS011;62974;49.460;10.892;2023-05-07T14:18:43;2.97;;;2.13;;
73084;SDS011;62974;49.460;10.892;2023-05-07T14:21:10;4.68;;;2.40;;
73084;SDS011;62974;49.460;10.892;2023-05-07T14:23:38;3.85;;;2.50;;
73084;SDS011;62974;49.460;10.892;2023-05-07T14:26:05;4.85;;;2.55;;
73084;SDS011;62974;49.460;10.892;2023-05-07T14:28:33;3.72;;;1.98;;
73084;SDS011;62974;49.460;10.892;2023-05-07T14:31:00;3.63;;;1.90;;
73084;SDS011;62974;49.460;10.892;2023-05-07T14:33:28;4.57;;;1.98;;
73084;SDS011;62974;49.460;10.892;2023-05-07T14:35:57;5.18;;;1.90;;
73084;SDS011;62974;49.460;10.892;2023-05-07T14:38:24;2.95;;;1.80;;
73084;SDS011;62974;49.460;10.892;2023-05-07T14:40:52;3.38;;;2.03;;
73084;SDS011;62974;49.460;10.892;2023-05-07T14:43:21;3.60;;;2.25;;
73084;SDS011;62974;49.460;10.892;2023-05-07T14:45:49;3.45;;;2.22;;
73084;SDS011;62974;49.460;10.892;2023-05-07T14:48:16;5.13;;;2.28;;
73084;SDS011;62974;49.460;10.892;2023-05-07T14:50:46;4.03;;;2.08;;
73084;SDS011;62974;49.460;10.892;2023-05-07T14:53:15;3.95;;;2.05;;
73084;SDS011;62974;49.460;10.892;2023-05-07T14:55:43;4.35;;;2.05;;
73084;SDS011;62974;49.460;10.892;2023-05-07T14:58:10;3.70;;;2.13;;
73084;SDS011;62974;49.460;10.892;2023-05-07T15:00:38;3.97;;;2.20;;
73084;SDS011;62974;49.460;10.892;2023-05-07T15:03:06;3.10;;;2.13;;
73084;SDS011;62974;49.460;10.892;2023-05-07T15:05:35;4.25;;;2.15;;
73084;SDS011;62974;49.460;10.892;2023-05-07T15:08:03;2.92;;;1.92;;
73084;SDS011;62974;49.460;10.892;2023-05-07T15:10:34;3.45;;;1.85;;
73084;SDS011;62974;49.460;10.892;2023-05-07T15:13:06;3.92;;;2.35;;
73084;SDS011;62974;49.460;10.892;2023-05-07T15:15:37;3.50;;;2.38;;
73084;SDS011;62974;49.460;10.892;2023-05-07T15:18:05;5.03;;;2.60;;
73084;SDS011;62974;49.460;10.892;2023-05-07T15:20:33;5.28;;;2.40;;